Time;durP1;ratioP1;P1;durP2;ratioP2;P2;SDS_P1;SDS_P2;PMS_P1;PMS_P2;Temp;Humidity;BMP_temperature;BMP_pressure;BME280_temperature;BME280_humidity;BME280_pressure;Samples;Min_cycle;Max_cycle;Signal;HPM_P1;HPM_P2
2022/03/25 00:01:27;;;;;;;39.63;18.05;;;7.30;56.80;;;;;;5025820;28;20951;-51
2022/03/25 00:03:53;;;;;;;39.30;18.30;;;7.20;56.90;;;;;;5029395;28;20891;-51
2022/03/25 00:06:18;;;;;;;35.90;17.83;;;7.20;57.30;;;;;;5029920;28;20741;-52
2022/03/25 00:08:44;;;;;;;35.47;17.17;;;7.20;57.50;;;;;;5020376;28;20381;-52
2022/03/25 00:11:10;;;;;;;35.53;17.30;;;7.20;57.60;;;;;;5009617;28;20385;-52
2022/03/25 00:13:36;;;;;;;33.53;17.27;;;7.10;57.40;;;;;;5010170;28;20444;-52
2022/03/25 00:16:04;;;;;;;36.87;17.47;;;7.20;57.30;;;;;;5009938;28;20454;-52
2022/03/25 00:18:29;;;;;;;33.90;16.80;;;7.20;57.10;;;;;;5010489;28;20447;-52
2022/03/25 00:20:55;;;;;;;34.95;16.30;;;7.20;57.00;;;;;;5009502;28;20870;-51
2022/03/25 00:23:21;;;;;;;33.15;16.70;;;7.20;57.50;;;;;;5010396;28;20404;-52
2022/03/25 00:25:47;;;;;;;37.80;17.67;;;7.10;57.70;;;;;;5000217;28;20444;-52
2022/03/25 00:28:12;;;;;;;32.38;16.90;;;7.20;58.30;;;;;;4990207;28;20387;-52
2022/03/25 00:30:38;;;;;;;36.40;17.50;;;7.20;58.40;;;;;;4990268;28;20437;-56
2022/03/25 00:33:04;;;;;;;35.20;18.08;;;7.10;58.50;;;;;;4989970;28;20394;-52
2022/03/25 00:35:31;;;;;;;37.08;18.80;;;7.10;58.60;;;;;;4990614;28;20419;-52
2022/03/25 00:37:58;;;;;;;34.53;17.15;;;7.10;59.00;;;;;;4989848;28;20401;-51
2022/03/25 00:40:24;;;;;;;34.15;18.15;;;7.10;59.40;;;;;;4990861;28;20394;-52
2022/03/25 00:42:50;;;;;;;32.70;16.55;;;7.00;60.00;;;;;;4990252;28;20425;-51
2022/03/25 00:45:16;;;;;;;38.30;17.23;;;7.00;61.00;;;;;;4990002;28;20448;-52
2022/03/25 00:47:42;;;;;;;38.22;17.85;;;6.90;60.90;;;;;;4991427;28;20716;-52
2022/03/25 00:50:09;;;;;;;35.67;17.80;;;7.00;61.60;;;;;;4990783;28;20408;-51
2022/03/25 00:52:35;;;;;;;38.22;18.08;;;6.80;61.30;;;;;;5000418;28;20408;-51
2022/03/25 00:55:01;;;;;;;36.65;18.70;;;6.80;61.30;;;;;;5009277;28;20428;-52
2022/03/25 00:57:27;;;;;;;29.70;15.80;;;6.70;61.70;;;;;;5000569;28;20390;-52
2022/03/25 00:59:53;;;;;;;36.15;16.23;;;6.70;62.90;;;;;;4991727;28;20781;-51
2022/03/25 01:02:19;;;;;;;37.47;17.42;;;6.60;63.60;;;;;;5010400;28;20385;-52
2022/03/25 01:04:45;;;;;;;38.25;18.30;;;6.60;64.70;;;;;;5009724;28;20885;-52
2022/03/25 01:07:10;;;;;;;35.05;17.17;;;6.60;65.40;;;;;;5009167;28;20381;-52
2022/03/25 01:09:36;;;;;;;37.47;17.77;;;6.50;65.70;;;;;;5009654;28;20377;-51
2022/03/25 01:12:02;;;;;;;35.07;17.17;;;6.40;66.10;;;;;;4991372;28;20404;-51
2022/03/25 01:14:28;;;;;;;35.67;17.02;;;6.30;66.20;;;;;;5009704;28;20885;-52
2022/03/25 01:16:54;;;;;;;35.38;16.45;;;6.30;67.10;;;;;;5009056;28;20400;-51
2022/03/25 01:19:20;;;;;;;35.63;17.20;;;6.30;67.50;;;;;;5009645;28;20412;-52
2022/03/25 01:21:46;;;;;;;33.78;16.73;;;6.30;67.00;;;;;;5009316;28;20416;-52
2022/03/25 01:24:12;;;;;;;34.33;17.25;;;6.30;67.00;;;;;;5009007;28;21075;-51
2022/03/25 01:26:39;;;;;;;36.10;17.48;;;6.30;67.60;;;;;;5009619;28;20391;-52
2022/03/25 01:29:05;;;;;;;40.72;18.23;;;6.30;67.60;;;;;;5008927;28;20420;-52
2022/03/25 01:31:32;;;;;;;33.55;17.10;;;6.30;67.90;;;;;;5009588;28;20432;-52
2022/03/25 01:33:58;;;;;;;35.75;17.55;;;6.20;68.40;;;;;;5008941;28;20387;-51
2022/03/25 01:36:24;;;;;;;33.88;17.30;;;6.30;69.30;;;;;;5009446;28;20393;-52
2022/03/25 01:38:50;;;;;;;33.90;16.98;;;6.20;70.40;;;;;;5009657;28;20408;-51
2022/03/25 01:41:17;;;;;;;32.53;16.47;;;6.20;70.80;;;;;;4991102;28;20945;-51
2022/03/25 01:43:50;;;;;;;34.47;17.40;;;6.30;71.60;;;;;;5012576;28;20454;-51
2022/03/25 01:46:17;;;;;;;34.95;17.02;;;6.00;72.50;;;;;;5012881;28;20381;-51
2022/03/25 01:48:43;;;;;;;36.17;18.30;;;5.90;73.80;;;;;;5013468;28;20735;-52
2022/03/25 01:51:08;;;;;;;37.85;17.90;;;5.70;74.40;;;;;;5012153;28;20871;-52
2022/03/25 01:53:34;;;;;;;32.60;16.83;;;5.60;76.90;;;;;;5013223;28;20389;-52
2022/03/25 01:56:01;;;;;;;36.08;15.82;;;5.60;77.70;;;;;;5012459;28;20381;-52
2022/03/25 01:58:30;;;;;;;38.42;17.88;;;5.60;78.90;;;;;;5012880;28;20739;-52
2022/03/25 02:00:56;;;;;;;34.10;17.73;;;5.80;80.40;;;;;;5012449;28;20735;-52
2022/03/25 02:03:22;;;;;;;35.65;18.17;;;5.80;81.10;;;;;;5012633;28;20795;-51
2022/03/25 02:05:49;;;;;;;32.25;17.25;;;5.80;81.60;;;;;;5012598;28;20483;-51
2022/03/25 02:08:15;;;;;;;37.72;18.17;;;5.70;82.80;;;;;;5012027;28;20475;-51
2022/03/25 02:10:41;;;;;;;38.23;18.63;;;6.70;83.50;;;;;;5012817;28;20412;-51
2022/03/25 02:13:11;;;;;;;36.22;17.33;;;5.70;83.10;;;;;;5011902;28;20415;-51
2022/03/25 02:15:39;;;;;;;33.53;17.48;;;5.70;83.70;;;;;;5012650;28;20415;-51
2022/03/25 02:18:18;;;;;;;37.40;17.40;;;5.70;83.40;;;;;;5012083;28;20431;-51
2022/03/25 02:20:45;;;;;;;33.10;17.42;;;5.70;82.80;;;;;;5012263;28;20397;-51
2022/03/25 02:23:13;;;;;;;34.08;17.70;;;5.80;82.70;;;;;;5012054;28;20452;-51
2022/03/25 02:25:40;;;;;;;31.77;17.40;;;5.70;81.90;;;;;;5012559;28;20437;-51
2022/03/25 02:28:06;;;;;;;33.00;17.47;;;5.60;82.70;;;;;;5011710;28;20403;-52
2022/03/25 02:30:33;;;;;;;35.03;17.10;;;5.60;83.30;;;;;;5012665;28;20893;-51
2022/03/25 02:33:01;;;;;;;37.53;19.03;;;5.60;83.20;;;;;;5011969;28;20537;-51
2022/03/25 02:35:37;;;;;;;34.85;17.73;;;5.60;84.60;;;;;;5012452;28;20926;-53
2022/03/25 02:38:04;;;;;;;32.95;17.13;;;5.50;86.10;;;;;;5011550;28;20423;-53
2022/03/25 02:40:29;;;;;;;36.47;18.45;;;5.40;85.50;;;;;;5012477;28;20385;-53
2022/03/25 02:42:55;;;;;;;35.90;18.35;;;5.30;86.00;;;;;;5012051;28;20773;-52
2022/03/25 02:45:21;;;;;;;36.37;17.87;;;5.20;87.40;;;;;;5010947;28;20385;-53
2022/03/25 02:47:48;;;;;;;34.55;17.92;;;5.30;88.20;;;;;;4995743;28;20910;-53
2022/03/25 02:50:16;;;;;;;32.75;17.65;;;5.30;87.60;;;;;;5001825;28;20385;-53
2022/03/25 02:52:42;;;;;;;36.17;16.90;;;5.30;86.50;;;;;;5012021;28;20874;-53
2022/03/25 02:55:08;;;;;;;35.53;18.90;;;5.30;87.40;;;;;;5011482;28;20413;-53
2022/03/25 02:57:35;;;;;;;33.55;16.75;;;5.30;88.60;;;;;;5012084;28;20387;-53
2022/03/25 03:00:01;;;;;;;36.42;17.90;;;5.20;89.30;;;;;;5010977;28;20392;-53
2022/03/25 03:02:27;;;;;;;34.03;17.20;;;5.10;89.30;;;;;;5012057;28;20458;-53
2022/03/25 03:04:53;;;;;;;34.60;16.60;;;5.10;90.00;;;;;;5011312;28;20481;-51
2022/03/25 03:07:18;;;;;;;35.90;17.87;;;5.10;90.40;;;;;;5011635;28;20472;-53
2022/03/25 03:09:44;;;;;;;37.08;19.65;;;5.00;91.20;;;;;;5011682;28;20384;-52
2022/03/25 03:12:10;;;;;;;39.87;18.10;;;5.00;91.70;;;;;;5011194;28;20857;-53
2022/03/25 03:14:36;;;;;;;35.77;18.07;;;5.00;91.70;;;;;;4994283;28;20826;-53
2022/03/25 03:17:04;;;;;;;34.30;16.50;;;5.00;92.30;;;;;;5010947;28;20475;-53
2022/03/25 03:19:31;;;;;;;35.22;18.20;;;5.00;92.30;;;;;;5011665;28;20404;-53
2022/03/25 03:21:57;;;;;;;33.90;17.83;;;5.00;92.20;;;;;;5010461;28;20466;-52
2022/03/25 03:24:23;;;;;;;37.97;17.40;;;5.00;92.70;;;;;;5011407;28;20397;-53
2022/03/25 03:26:49;;;;;;;33.60;17.27;;;4.90;93.20;;;;;;5011324;28;20715;-53
2022/03/25 03:29:14;;;;;;;37.10;17.60;;;4.90;94.00;;;;;;4993262;28;20442;-53
2022/03/25 03:31:40;;;;;;;34.72;17.95;;;4.90;93.80;;;;;;5011463;28;20734;-52
2022/03/25 03:34:06;;;;;;;34.50;17.95;;;5.40;94.50;;;;;;5010476;28;20444;-53
2022/03/25 03:36:31;;;;;;;32.53;17.00;;;4.90;94.50;;;;;;5011193;28;20392;-53
2022/03/25 03:38:57;;;;;;;31.17;17.65;;;4.90;94.50;;;;;;5009375;28;20904;-52
2022/03/25 03:41:23;;;;;;;36.57;18.60;;;4.80;95.20;;;;;;5011242;28;20490;-53
2022/03/25 03:43:48;;;;;;;33.70;17.92;;;4.70;95.40;;;;;;4993649;28;20404;-53
2022/03/25 03:46:14;;;;;;;37.27;18.30;;;4.70;95.60;;;;;;5010708;28;20431;-54
2022/03/25 03:48:40;;;;;;;33.28;17.40;;;4.70;95.80;;;;;;5011246;28;20473;-54
2022/03/25 03:51:05;;;;;;;34.13;17.60;;;4.60;95.70;;;;;;5010492;28;20397;-53
2022/03/25 03:53:31;;;;;;;38.77;18.33;;;4.60;95.50;;;;;;5011449;28;20388;-53
2022/03/25 03:55:57;;;;;;;35.45;18.70;;;4.60;96.10;;;;;;5010797;28;20405;-52
2022/03/25 03:58:23;;;;;;;36.97;19.07;;;4.70;96.50;;;;;;5010610;28;20393;-53
2022/03/25 04:00:49;;;;;;;38.38;17.92;;;4.70;96.50;;;;;;5010911;28;20392;-53
2022/03/25 04:03:16;;;;;;;37.22;17.70;;;4.70;96.30;;;;;;5006476;28;20459;-53
2022/03/25 04:05:42;;;;;;;34.73;17.43;;;4.70;96.40;;;;;;4998832;28;20409;-52
2022/03/25 04:08:08;;;;;;;35.15;18.15;;;4.70;96.90;;;;;;5009937;28;20479;-53
2022/03/25 04:10:35;;;;;;;34.65;16.95;;;4.70;96.40;;;;;;5010252;28;20389;-53
2022/03/25 04:13:00;;;;;;;36.67;17.83;;;4.60;96.40;;;;;;4991424;28;20378;-53
2022/03/25 04:15:27;;;;;;;37.22;18.23;;;4.50;96.30;;;;;;5010648;28;20412;-52
2022/03/25 04:17:53;;;;;;;35.13;17.85;;;4.50;96.80;;;;;;5010489;28;20429;-54
2022/03/25 04:20:18;;;;;;;32.33;17.00;;;4.50;97.40;;;;;;5009574;28;20452;-53
2022/03/25 04:22:45;;;;;;;34.25;17.70;;;4.40;97.30;;;;;;4992822;28;20766;-53
2022/03/25 04:25:13;;;;;;;40.35;18.02;;;4.40;97.50;;;;;;5009926;28;20385;-53
2022/03/25 04:27:50;;;;;;;35.60;17.85;;;4.30;97.70;;;;;;5010549;28;20407;-53
2022/03/25 04:30:26;;;;;;;32.97;16.97;;;4.30;98.60;;;;;;5008503;28;20460;-53
2022/03/25 04:32:52;;;;;;;34.45;16.90;;;4.30;98.40;;;;;;5009368;28;20392;-54
2022/03/25 04:35:20;;;;;;;36.70;17.95;;;4.30;98.10;;;;;;5009394;28;20409;-53
2022/03/25 04:37:46;;;;;;;33.00;17.53;;;4.40;98.30;;;;;;5008847;28;20924;-53
2022/03/25 04:40:15;;;;;;;41.87;20.53;;;4.40;98.60;;;;;;5009163;28;20384;-53
2022/03/25 04:42:41;;;;;;;47.53;22.95;;;4.40;98.70;;;;;;5010176;28;20472;-53
2022/03/25 04:45:07;;;;;;;37.67;20.03;;;4.40;98.80;;;;;;5009397;28;20464;-53
2022/03/25 04:47:33;;;;;;;36.83;18.30;;;4.40;99.10;;;;;;5010163;28;20408;-53
2022/03/25 04:49:58;;;;;;;32.08;17.35;;;4.50;99.10;;;;;;5009168;28;20404;-52
2022/03/25 04:52:24;;;;;;;38.05;18.40;;;4.70;99.00;;;;;;5009813;28;20460;-53
2022/03/25 04:54:50;;;;;;;39.70;17.80;;;4.70;99.20;;;;;;5010207;28;20413;-53
2022/03/25 04:57:15;;;;;;;35.90;18.13;;;4.60;99.50;;;;;;5009357;28;20393;-53
2022/03/25 04:59:41;;;;;;;35.60;18.47;;;4.40;99.90;;;;;;5010000;28;20389;-52
2022/03/25 05:02:06;;;;;;;35.90;17.80;;;4.50;99.90;;;;;;5008674;28;20397;-52
2022/03/25 05:04:33;;;;;;;34.15;17.45;;;4.40;99.80;;;;;;5009978;28;20385;-53
2022/03/25 05:06:59;;;;;;;37.15;18.40;;;4.30;99.90;;;;;;5009192;28;20450;-52
2022/03/25 05:09:25;;;;;;;35.80;17.02;;;4.10;99.90;;;;;;5024325;28;20849;-53
2022/03/25 05:11:50;;;;;;;37.53;18.20;;;4.20;99.90;;;;;;5014551;28;20407;-53
2022/03/25 05:14:16;;;;;;;35.93;18.63;;;5.50;99.90;;;;;;5008997;28;20658;-53
2022/03/25 05:16:42;;;;;;;34.33;18.00;;;4.00;99.90;;;;;;4992433;28;21085;-53
2022/03/25 05:19:07;;;;;;;36.00;18.52;;;4.00;99.90;;;;;;5012587;28;20439;-53
2022/03/25 05:21:33;;;;;;;37.17;17.50;;;3.90;99.90;;;;;;5013767;28;20496;-53
2022/03/25 05:23:58;;;;;;;40.28;18.95;;;3.90;99.90;;;;;;5012260;28;20380;-52
2022/03/25 05:26:24;;;;;;;35.63;17.30;;;3.90;99.90;;;;;;5003016;28;20435;-53
2022/03/25 05:28:50;;;;;;;35.20;17.40;;;4.00;99.90;;;;;;4997622;28;20382;-53
2022/03/25 05:31:15;;;;;;;37.47;17.90;;;4.00;99.90;;;;;;4993284;28;20800;-53
2022/03/25 05:33:41;;;;;;;36.25;17.40;;;4.00;99.90;;;;;;5004430;28;20388;-54
2022/03/25 05:36:07;;;;;;;36.27;18.57;;;4.20;99.90;;;;;;5012041;28;20400;-53
2022/03/25 05:38:32;;;;;;;38.05;18.88;;;4.30;99.90;;;;;;5012947;28;20507;-54
2022/03/25 05:40:58;;;;;;;37.17;19.47;;;4.60;99.90;;;;;;5011292;28;20455;-52
2022/03/25 05:43:23;;;;;;;36.77;18.10;;;4.80;99.90;;;;;;5012898;28;20385;-53
2022/03/25 05:45:49;;;;;;;34.92;17.95;;;3.70;99.90;;;;;;5013658;28;20734;-53
2022/03/25 05:48:15;;;;;;;36.73;18.30;;;5.10;99.90;;;;;;5007010;28;20926;-51
2022/03/25 05:50:40;;;;;;;37.10;17.55;;;5.40;99.60;;;;;;5007177;28;20395;-51
2022/03/25 05:53:06;;;;;;;34.20;17.60;;;5.80;99.00;;;;;;5012518;28;20746;-51
2022/03/25 05:55:32;;;;;;;33.45;16.95;;;6.50;98.00;;;;;;5013191;28;20898;-53
2022/03/25 05:57:58;;;;;;;33.45;17.92;;;7.20;95.50;;;;;;5010891;28;20413;-52
2022/03/25 06:00:24;;;;;;;32.50;18.00;;;7.90;93.10;;;;;;5012637;28;20387;-53
2022/03/25 06:02:50;;;;;;;34.60;18.10;;;8.60;91.30;;;;;;5001662;28;20408;-54
2022/03/25 06:05:16;;;;;;;36.95;18.70;;;9.20;89.00;;;;;;5011996;28;20396;-53
2022/03/25 06:07:43;;;;;;;31.38;17.45;;;9.70;84.80;;;;;;5012614;28;20381;-52
2022/03/25 06:10:11;;;;;;;38.13;19.67;;;10.30;80.20;;;;;;5006283;28;20538;-52
2022/03/25 06:12:39;;;;;;;33.90;18.03;;;10.80;77.00;;;;;;4997777;28;20407;-52
2022/03/25 06:15:06;;;;;;;32.10;18.55;;;11.10;75.30;;;;;;4998425;28;20417;-52
2022/03/25 06:17:32;;;;;;;31.92;19.17;;;11.80;72.80;;;;;;5000213;28;20415;-52
2022/03/25 06:19:58;;;;;;;32.58;18.60;;;12.50;69.80;;;;;;5011416;28;20862;-55
2022/03/25 06:22:24;;;;;;;31.83;19.27;;;13.10;65.70;;;;;;4993579;28;20493;-52
2022/03/25 06:24:53;;;;;;;34.10;20.07;;;13.50;64.30;;;;;;5007796;28;20528;-53
2022/03/25 06:27:20;;;;;;;35.65;19.58;;;13.80;62.30;;;;;;4994318;28;20395;-52
2022/03/25 06:29:46;;;;;;;37.92;19.35;;;14.20;59.80;;;;;;5007729;28;20476;-54
2022/03/25 06:32:12;;;;;;;34.23;19.27;;;14.30;58.30;;;;;;5007942;28;20822;-54
2022/03/25 06:34:37;;;;;;;32.45;20.48;;;14.40;57.80;;;;;;5008616;28;20925;-54
2022/03/25 06:37:04;;;;;;;35.80;20.67;;;14.50;57.00;;;;;;4999817;28;20427;-54
2022/03/25 06:39:30;;;;;;;32.90;22.20;;;14.70;56.70;;;;;;4993011;28;20386;-54
2022/03/25 06:41:56;;;;;;;33.40;19.95;;;14.90;55.80;;;;;;5002718;28;20381;-54
2022/03/25 06:44:22;;;;;;;31.42;20.05;;;15.20;55.50;;;;;;5011428;28;20393;-54
2022/03/25 06:46:49;;;;;;;31.70;19.93;;;15.20;54.70;;;;;;5010337;28;20464;-52
2022/03/25 06:49:15;;;;;;;29.83;19.35;;;15.60;54.40;;;;;;5004157;28;20393;-53
2022/03/25 06:51:41;;;;;;;31.35;19.73;;;16.10;53.70;;;;;;5010678;28;20435;-53
2022/03/25 06:54:06;;;;;;;33.85;20.33;;;16.60;52.00;;;;;;5010731;28;20727;-53
2022/03/25 06:56:34;;;;;;;39.08;20.77;;;17.20;51.20;;;;;;5011782;28;20428;-52
2022/03/25 06:59:01;;;;;;;33.35;24.98;;;18.00;49.50;;;;;;5010808;28;20390;-51
2022/03/25 07:01:27;;;;;;;33.97;23.92;;;17.60;48.30;;;;;;5011459;28;20388;-52
2022/03/25 07:03:53;;;;;;;38.35;25.63;;;17.70;47.70;;;;;;5007297;28;21263;-52
2022/03/25 07:06:23;;;;;;;32.93;23.97;;;18.20;47.20;;;;;;4989280;28;20436;-52
2022/03/25 07:08:54;;;;;;;33.58;24.80;;;18.30;46.60;;;;;;5011357;28;20874;-52
2022/03/25 07:11:20;;;;;;;37.30;24.52;;;17.90;46.30;;;;;;5004075;28;20408;-52
2022/03/25 07:13:46;;;;;;;36.87;25.17;;;18.40;46.60;;;;;;5011585;28;20398;-53
2022/03/25 07:16:12;;;;;;;33.70;24.88;;;19.10;44.80;;;;;;5010240;28;20396;-52
2022/03/25 07:18:37;;;;;;;35.33;21.40;;;19.10;44.00;;;;;;5010911;28;20751;-52
2022/03/25 07:21:04;;;;;;;33.57;23.00;;;19.70;41.10;;;;;;5009712;28;20415;-52
2022/03/25 07:23:30;;;;;;;30.17;21.05;;;19.80;99.90;;;;;;5011254;28;20393;-52
2022/03/25 07:25:56;;;;;;;30.97;21.00;;;18.90;99.90;;;;;;5010993;28;20385;-52
2022/03/25 07:28:22;;;;;;;34.33;21.45;;;17.90;99.90;;;;;;4992797;28;20790;-52
2022/03/25 07:30:48;;;;;;;33.00;26.33;;;17.90;99.90;;;;;;5010676;28;20389;-52
2022/03/25 07:33:13;;;;;;;34.27;26.30;;;19.00;99.90;;;;;;5010339;28;20388;-52
2022/03/25 07:35:39;;;;;;;35.42;22.10;;;19.70;99.90;;;;;;5010737;28;20894;-53
2022/03/25 07:38:09;;;;;;;31.67;23.48;;;20.50;99.90;;;;;;5009557;28;20798;-52
2022/03/25 07:40:35;;;;;;;35.55;22.40;;;21.00;99.90;;;;;;5010245;28;20418;-52
2022/03/25 07:43:00;;;;;;;33.85;22.90;;;20.20;99.90;;;;;;5010869;28;20453;-55
2022/03/25 07:45:26;;;;;;;31.63;21.57;;;19.90;99.90;;;;;;5006550;28;20748;-55
2022/03/25 07:47:52;;;;;;;34.37;21.87;;;20.60;99.90;;;;;;5010993;28;20730;-55
2022/03/25 07:50:23;;;;;;;32.47;24.15;;;21.40;99.90;;;;;;5010051;28;20415;-55
2022/03/25 07:52:50;;;;;;;31.98;22.90;;;21.30;99.90;;;;;;5010454;28;20385;-55
2022/03/25 07:55:18;;;;;;;37.92;23.65;;;21.30;99.90;;;;;;5007911;28;20409;-55
2022/03/25 07:57:45;;;;;;;33.10;23.10;;;21.80;99.90;;;;;;5010944;28;20419;-53
2022/03/25 08:00:12;;;;;;;36.58;25.88;;;22.40;99.90;;;;;;5006544;28;20496;-52
2022/03/25 08:02:39;;;;;;;32.97;22.70;;;22.10;99.90;;;;;;5007869;28;20459;-56
2022/03/25 08:05:06;;;;;;;37.63;23.60;;;21.80;99.90;;;;;;5008600;28;20870;-52
2022/03/25 08:07:40;;;;;;;35.72;23.42;;;22.40;99.90;;;;;;5011045;28;20420;-53
2022/03/25 08:10:06;;;;;;;36.63;23.52;;;22.50;99.90;;;;;;5008400;28;20488;-55
2022/03/25 08:12:31;;;;;;;34.30;22.47;;;22.00;99.90;;;;;;5009188;28;20476;-55
2022/03/25 08:14:57;;;;;;;35.60;23.37;;;21.70;99.90;;;;;;5011002;28;20470;-55
2022/03/25 08:17:24;;;;;;;37.23;22.97;;;22.00;99.90;;;;;;5009774;28;20393;-54
2022/03/25 08:19:49;;;;;;;40.53;24.85;;;22.30;99.90;;;;;;4993155;28;20403;-54
2022/03/25 08:22:15;;;;;;;34.77;24.20;;;22.80;99.90;;;;;;5009035;28;20487;-54
2022/03/25 08:30:09;;;;;;;36.60;24.27;;;23.70;99.90;;;;;;5009681;28;20385;-54
2022/03/25 08:32:35;;;;;;;35.57;24.43;;;23.60;99.90;;;;;;5010371;28;20385;-54
2022/03/25 08:35:02;;;;;;;37.37;26.20;;;23.70;99.90;;;;;;5000213;28;20466;-54
2022/03/25 08:37:28;;;;;;;37.17;24.85;;;24.80;99.90;;;;;;4990215;28;20390;-54
2022/03/25 08:39:54;;;;;;;36.60;23.25;;;24.90;99.90;;;;;;4990592;28;20387;-54
2022/03/25 08:42:19;;;;;;;36.83;24.88;;;25.40;99.90;;;;;;4991031;28;20410;-54
2022/03/25 08:44:45;;;;;;;34.13;24.87;;;26.00;99.90;;;;;;5009469;28;20385;-54
2022/03/25 08:47:11;;;;;;;35.87;24.83;;;26.50;99.90;;;;;;5009726;28;20916;-54
2022/03/25 08:49:36;;;;;;;38.93;27.73;;;26.40;99.90;;;;;;5010011;28;20447;-55
2022/03/25 08:52:02;;;;;;;38.73;31.03;;;26.20;99.90;;;;;;5009152;28;20397;-54
2022/03/25 08:54:28;;;;;;;39.58;30.92;;;26.50;99.90;;;;;;5009775;28;20466;-55
2022/03/25 08:56:54;;;;;;;42.70;31.00;;;26.00;99.90;;;;;;5009849;28;20392;-55
2022/03/25 08:59:19;;;;;;;42.03;30.48;;;25.60;99.90;;;;;;5008749;28;20480;-55
2022/03/25 09:01:45;;;;;;;41.78;30.80;;;26.10;99.90;;;;;;5009580;28;20404;-55
2022/03/25 09:04:11;;;;;;;38.65;31.30;;;27.10;99.90;;;;;;5009071;28;20384;-55
2022/03/25 09:06:36;;;;;;;38.35;30.25;;;26.90;99.90;;;;;;5008970;28;20409;-55
2022/03/25 09:09:02;;;;;;;42.60;29.55;;;27.10;99.90;;;;;;5008866;28;20908;-54
2022/03/25 09:11:28;;;;;;;37.15;28.58;;;27.70;99.90;;;;;;5008437;28;20400;-54
2022/03/25 09:13:55;;;;;;;39.45;32.10;;;26.00;99.90;;;;;;5006146;28;20409;-54
2022/03/25 09:16:20;;;;;;;39.10;31.80;;;27.00;99.90;;;;;;5007179;28;20523;-54
2022/03/25 09:18:46;;;;;;;41.65;31.80;;;26.00;99.90;;;;;;5005104;28;20472;-53
2022/03/25 09:21:12;;;;;;;39.40;30.20;;;25.70;99.90;;;;;;5003452;28;20467;-56
2022/03/25 09:23:37;;;;;;;42.13;30.80;;;27.00;99.90;;;;;;5004658;28;20400;-56
2022/03/25 09:26:03;;;;;;;38.43;27.13;;;27.10;99.90;;;;;;5003781;28;20477;-55
2022/03/25 09:28:29;;;;;;;39.47;26.87;;;26.50;99.90;;;;;;5003363;28;20436;-56
2022/03/25 09:30:55;;;;;;;40.33;26.33;;;26.70;99.90;;;;;;5007781;28;20421;-56
2022/03/25 09:33:21;;;;;;;38.40;25.75;;;27.40;99.90;;;;;;5006917;28;20498;-56
2022/03/25 09:35:46;;;;;;;43.70;36.05;;;27.00;99.90;;;;;;5006187;28;20511;-56
2022/03/25 09:38:12;;;;;;;39.10;28.60;;;27.10;99.90;;;;;;5003425;28;20809;-56
2022/03/25 09:40:41;;;;;;;37.67;28.10;;;27.50;99.90;;;;;;5008283;28;20427;-56
2022/03/25 09:43:06;;;;;;;40.33;26.92;;;27.50;99.90;;;;;;5001742;28;20416;-56
2022/03/25 09:45:33;;;;;;;38.28;28.55;;;26.90;99.90;;;;;;5003154;28;21017;-56
2022/03/25 09:47:59;;;;;;;39.70;27.35;;;26.60;99.90;;;;;;5007829;28;20401;-56
2022/03/25 09:50:27;;;;;;;41.85;27.13;;;27.10;99.90;;;;;;5002631;28;20902;-56
2022/03/25 09:52:54;;;;;;;45.08;28.27;;;27.40;99.90;;;;;;5008791;28;20704;-56
2022/03/25 09:55:20;;;;;;;42.72;33.03;;;26.90;99.90;;;;;;5008061;28;20416;-54
2022/03/25 09:57:46;;;;;;;42.03;32.73;;;25.60;99.90;;;;;;5008709;28;20920;-54
2022/03/25 10:00:16;;;;;;;43.70;30.75;;;25.60;99.90;;;;;;5004735;28;20481;-54
2022/03/25 10:02:42;;;;;;;43.38;31.05;;;26.20;99.90;;;;;;5004281;28;20408;-54
2022/03/25 10:05:19;;;;;;;43.17;32.80;;;26.50;99.90;;;;;;5010467;28;20413;-54
2022/03/25 10:07:47;;;;;;;45.07;31.27;;;26.50;99.90;;;;;;5011978;28;20477;-54
2022/03/25 10:10:24;;;;;;;42.58;31.02;;;26.90;99.90;;;;;;5009730;28;20404;-54
2022/03/25 10:13:02;;;;;;;43.03;32.47;;;26.40;99.90;;;;;;5007041;28;20412;-56
2022/03/25 10:15:33;;;;;;;46.28;30.63;;;26.70;99.90;;;;;;5011418;28;20413;-57
2022/03/25 10:18:06;;;;;;;45.90;32.63;;;27.00;99.90;;;;;;4992453;28;21999;-54
2022/03/25 10:20:35;;;;;;;44.08;30.60;;;26.60;99.90;;;;;;5006286;28;20400;-54
2022/03/25 10:23:18;;;;;;;43.15;30.65;;;26.80;99.90;;;;;;5011028;28;20424;-54
2022/03/25 10:25:55;;;;;;;41.97;30.02;;;26.60;99.90;;;;;;5008836;28;20424;-54
2022/03/25 10:28:44;;;;;;;39.57;29.30;;;26.80;99.90;;;;;;5004774;28;20404;-56
2022/03/25 10:31:14;;;;;;;41.08;30.42;;;27.50;99.90;;;;;;5006120;28;20474;-56
2022/03/25 10:33:49;;;;;;;45.92;32.03;;;28.10;99.90;;;;;;5009961;28;20411;-57
2022/03/25 10:36:17;;;;;;;39.50;30.15;;;27.70;99.90;;;;;;5008762;28;20413;-54
2022/03/25 10:38:54;;;;;;;37.60;29.48;;;27.30;99.90;;;;;;5012059;28;20393;-56
2022/03/25 10:41:25;;;;;;;39.85;28.90;;;27.20;99.90;;;;;;5003316;28;20400;-56
2022/03/25 10:43:53;;;;;;;39.20;30.70;;;26.20;99.90;;;;;;5006527;28;20409;-56
2022/03/25 10:46:32;;;;;;;43.08;29.70;;;27.20;99.90;;;;;;5009164;28;20408;-56
2022/03/25 10:48:58;;;;;;;40.70;28.30;;;27.70;99.90;;;;;;5009207;28;20976;-56
2022/03/25 10:51:24;;;;;;;42.50;30.70;;;27.50;99.90;;;;;;5017811;28;20395;-56
2022/03/25 10:54:00;;;;;;;45.75;31.67;;;27.20;99.90;;;;;;5007547;28;20445;-56
2022/03/25 10:56:27;;;;;;;39.83;28.87;;;28.10;99.90;;;;;;5010596;28;20464;-56
2022/03/25 10:58:54;;;;;;;38.60;29.25;;;28.40;99.90;;;;;;4997697;28;20505;-55
2022/03/25 11:01:20;;;;;;;38.65;29.42;;;28.50;99.90;;;;;;4992801;28;20388;-55
2022/03/25 11:03:50;;;;;;;42.30;31.08;;;27.70;99.90;;;;;;5011504;28;20396;-55
2022/03/25 11:06:16;;;;;;;41.22;28.98;;;27.90;99.90;;;;;;5009694;28;20408;-55
2022/03/25 11:08:43;;;;;;;38.90;30.95;;;27.70;99.90;;;;;;4993353;28;20735;-55
2022/03/25 11:11:09;;;;;;;40.80;29.08;;;27.60;99.90;;;;;;5010802;28;20468;-55
2022/03/25 11:13:38;;;;;;;39.20;29.92;;;27.90;99.90;;;;;;5011988;28;20484;-55
2022/03/25 11:16:08;;;;;;;37.33;28.45;;;27.90;99.90;;;;;;5010155;28;20416;-54
2022/03/25 11:18:35;;;;;;;39.25;29.73;;;27.40;99.90;;;;;;5011671;28;20395;-55
2022/03/25 11:21:05;;;;;;;38.70;30.23;;;26.70;99.90;;;;;;5011547;28;20470;-55
2022/03/25 11:23:45;;;;;;;38.08;28.30;;;26.70;99.90;;;;;;5011755;28;20393;-55
2022/03/25 11:26:14;;;;;;;40.65;28.63;;;27.10;99.90;;;;;;5012011;28;20502;-55
2022/03/25 11:28:42;;;;;;;41.35;29.60;;;27.10;99.90;;;;;;5012328;28;20377;-55
2022/03/25 11:31:08;;;;;;;35.60;28.63;;;26.60;99.90;;;;;;5010579;28;20385;-55
2022/03/25 11:34:09;;;;;;;36.57;27.07;;;26.10;99.90;;;;;;5011123;28;20470;-54
2022/03/25 11:36:40;;;;;;;38.00;27.65;;;25.80;99.90;;;;;;5011282;28;20385;-55
2022/03/25 11:39:22;;;;;;;41.55;29.00;;;24.70;99.90;;;;;;5009985;28;20432;-54
2022/03/25 11:41:49;;;;;;;37.95;26.75;;;24.30;99.90;;;;;;5010563;28;20393;-54
2022/03/25 11:44:14;;;;;;;40.25;28.13;;;23.50;99.90;;;;;;5009762;28;20463;-55
2022/03/25 11:46:58;;;;;;;39.77;28.17;;;22.80;99.90;;;;;;5011026;28;20420;-55
2022/03/25 11:49:29;;;;;;;38.50;27.23;;;22.50;99.90;;;;;;5008557;28;20481;-55
2022/03/25 11:51:55;;;;;;;43.30;27.65;;;22.60;99.90;;;;;;5010599;28;20424;-54
2022/03/25 11:54:37;;;;;;;37.78;27.05;;;22.50;99.90;;;;;;5005106;28;20449;-54
2022/03/25 11:57:05;;;;;;;37.67;26.77;;;22.60;99.90;;;;;;5008654;28;20404;-54
2022/03/25 11:59:58;;;;;;;41.22;29.10;;;22.80;99.90;;;;;;5011030;28;20412;-55
2022/03/25 12:02:25;;;;;;;40.92;28.92;;;23.10;99.90;;;;;;5006462;28;20392;-55
2022/03/25 12:04:51;;;;;;;40.22;28.35;;;22.70;99.90;;;;;;5010519;28;20397;-55
2022/03/25 12:07:19;;;;;;;45.13;29.20;;;22.80;99.90;;;;;;5010268;28;20453;-55
2022/03/25 12:09:46;;;;;;;41.77;28.10;;;22.70;99.90;;;;;;5011353;28;20392;-55
2022/03/25 12:12:12;;;;;;;43.95;28.27;;;22.60;99.90;;;;;;5010471;28;20468;-54
2022/03/25 12:15:06;;;;;;;40.75;28.92;;;22.50;99.90;;;;;;5010961;28;20462;-57
2022/03/25 12:17:32;;;;;;;40.58;28.85;;;22.40;99.90;;;;;;5010200;28;20462;-55
2022/03/25 12:20:00;;;;;;;37.90;27.33;;;22.00;99.90;;;;;;5011032;28;20400;-55
2022/03/25 12:22:29;;;;;;;39.33;27.38;;;22.10;99.90;;;;;;5010949;28;21037;-56
2022/03/25 12:25:06;;;;;;;39.97;28.33;;;22.60;99.90;;;;;;5010816;28;20881;-55
2022/03/25 12:27:32;;;;;;;41.42;28.42;;;22.60;99.90;;;;;;5009410;28;20471;-55
2022/03/25 12:29:57;;;;;;;40.55;28.83;;;22.50;99.90;;;;;;5010377;28;20812;-55
2022/03/25 12:32:25;;;;;;;41.03;27.45;;;22.10;99.90;;;;;;5009487;28;20380;-55
2022/03/25 12:34:54;;;;;;;35.00;25.83;;;22.30;99.90;;;;;;5009760;28;20449;-55
2022/03/25 12:37:35;;;;;;;36.45;26.25;;;22.40;99.90;;;;;;5004023;28;20482;-56